Hlavní strana
METAR-TAF:

METAR-TAF

Letiště :

New Orleans, Louisiana, Spojené státy americké

zeměpisná šířka: 29-59-34N, zeměpisná délka: 090-15-03W, výška: 1 m

Aktuální stav počasí

Zpráva byla vytvořena před 38 minutami, v 12:53 UTC
Západní vítr 8 kt
Teplota 16°C
Vlhkost vzduchu 72%
Tlak 1017 hPa
Viditelnost: 16.1 km
Skoro jasno ve výšce 2500 ft
Skoro jasno ve výšce 18000 ft

METAR: KMSY 231253Z 28008KT 10SM FEW025 FEW180 16/11 A3002 RMK AO2 SLP167 T01560111

Čas: 08:31 (13:31 UTC)

Předpověď počasí

Zpráva byla vytvořena před 2 hodinami a 11 minutami, v 11:20 UTC
Předpověď platná od 23 v 12 UTC do 24 v 18 UTC
Západoseverozápadní vítr 7 kt
Viditelnost: 10 km
Skoro jasno ve výšce 25000 ft
Od 23 v 1800 UTC
Západní vítr 11 kt
Viditelnost: 10 km
Polojasno ve výšce 8000 ft
Od 24 v 0100 UTC
Západoseverozápadní vítr 7 kt
Viditelnost: 10 km
Polojasno ve výšce 8000 ft

TAF: KMSY 231120Z 2312/2418 30007KT P6SM FEW250 FM231800 28011KT P6SM SCT080 FM240100 29007KT P6SM SCT080

Stav a předpovědi počasí z více než 4 000 letišť (zprávy METAR a TAF).

Červené a žluté tečky na mapě představují dostupné meteorologické stanice.

Když kurzor umístíte na tečku, zobrazí se název stanice.

Pak kliknutím zobrazíte stav a předpověď počasí.

Chcete-li změnit mapu, kliknutím na zelené tlačítko se znaménkem +mapu přiblížíte, kliknutím na zelené tlačítko se znaménkem – mapu oddálíte a kliknutím na zelené šipky přejdete na sousední mapy.


METAR-TAF: